Time,TemperatureF,DewpointF,PressureIn,WindDirection,WindDirectionDegrees,WindSpeedMPH,WindSpeedGustMPH,Humidity,HourlyPrecipIn,Conditions,Clouds,dailyrainin,SolarRadiationWatts/m^2,SoftwareType,DateUTC
2013-01-10 00:33:00,47.0,47.0,-100.00,North,1,4.0,12.0,100,0.00,,,0.00,0.000000,,2013-01-10 05:33:00,
2013-01-10 00:43:00,47.0,47.0,-100.00,North,1,4.0,12.0,100,0.00,,,0.00,0.000000,,2013-01-10 05:43:00,
2013-01-10 00:53:00,47.0,47.0,-100.00,North,1,4.0,12.0,100,0.00,,,0.00,0.000000,,2013-01-10 05:53:00,
2013-01-10 01:02:00,47.0,47.0,-100.00,North,1,4.0,12.0,100,0.00,,,0.00,0.000000,,2013-01-10 06:02:00,
2013-01-10 01:32:00,47.0,47.0,-100.00,North,10,5.0,7.0,100,0.00,,,0.00,0.000000,,2013-01-10 06:32:00,
2013-01-10 01:42:00,47.0,47.0,-100.00,North,10,5.0,7.0,100,0.00,,,0.00,0.000000,,2013-01-10 06:42:00,
2013-01-10 01:52:00,47.0,47.0,-100.00,North,10,5.0,7.0,100,0.00,,,0.00,0.000000,,2013-01-10 06:52:00,
2013-01-10 02:02:00,47.0,47.0,-100.00,North,10,5.0,7.0,100,0.00,,,0.00,0.000000,,2013-01-10 07:02:00,
2013-01-10 02:22:00,48.0,48.0,-100.00,WNW,297,6.0,8.0,100,0.00,,,0.00,0.000000,,2013-01-10 07:22:00,
2013-01-10 02:32:00,48.0,48.0,-100.00,WNW,297,6.0,8.0,100,0.00,,,0.00,0.000000,,2013-01-10 07:32:00,
2013-01-10 02:42:00,48.0,48.0,-100.00,WNW,297,6.0,8.0,100,0.00,,,0.00,0.000000,,2013-01-10 07:42:00,
2013-01-10 02:52:00,48.0,48.0,-100.00,WNW,297,6.0,8.0,100,0.00,,,0.00,0.000000,,2013-01-10 07:52:00,
2013-01-10 03:02:00,48.0,48.0,-100.00,WNW,297,6.0,8.0,100,0.00,,,0.00,0.000000,,2013-01-10 08:02:00,
2013-01-10 03:33:00,48.0,48.0,-100.00,West,265,11.0,14.0,100,0.00,,,0.00,0.000000,,2013-01-10 08:33:00,
2013-01-10 03:42:00,48.0,48.0,-100.00,West,265,11.0,14.0,100,0.00,,,0.00,0.000000,,2013-01-10 08:42:00,
2013-01-10 03:53:00,48.0,48.0,-100.00,West,265,11.0,14.0,100,0.00,,,0.00,0.000000,,2013-01-10 08:53:00,
2013-01-10 04:02:00,48.0,48.0,-100.00,West,265,11.0,14.0,100,0.00,,,0.00,0.000000,,2013-01-10 09:02:00,
2013-01-10 04:03:00,49.0,46.0,-100.00,WNW,302,13.0,19.0,91,0.00,,,0.00,0.000000,,2013-01-10 09:03:00,
2013-01-10 04:32:00,49.0,46.0,-100.00,WNW,302,13.0,19.0,91,0.00,,,0.00,0.000000,,2013-01-10 09:32:00,
2013-01-10 04:43:00,49.0,46.0,-100.00,WNW,302,13.0,19.0,91,0.00,,,0.00,0.000000,,2013-01-10 09:43:00,
2013-01-10 04:53:00,49.0,46.0,-100.00,WNW,302,13.0,19.0,91,0.00,,,0.00,0.000000,,2013-01-10 09:53:00,
2013-01-10 05:33:00,49.0,48.0,-100.00,WNW,294,11.0,17.0,98,0.00,,,0.00,0.000000,,2013-01-10 10:33:00,
2013-01-10 05:42:00,49.0,48.0,-100.00,WNW,294,11.0,17.0,98,0.00,,,0.00,0.000000,,2013-01-10 10:42:00,
2013-01-10 05:53:00,49.0,48.0,-100.00,WNW,294,11.0,17.0,98,0.00,,,0.00,0.000000,,2013-01-10 10:53:00,
2013-01-10 06:02:00,49.0,48.0,-100.00,WNW,294,11.0,17.0,98,0.00,,,0.00,0.000000,,2013-01-10 11:02:00,
2013-01-10 06:03:00,49.0,49.0,-100.00,WNW,300,11.0,15.0,100,0.00,,,0.00,0.000000,,2013-01-10 11:03:00,
2013-01-10 06:23:00,49.0,49.0,-100.00,WNW,300,11.0,15.0,100,0.00,,,0.00,0.000000,,2013-01-10 11:23:00,
2013-01-10 06:33:00,49.0,49.0,-100.00,WNW,300,11.0,15.0,100,0.00,,,0.00,0.000000,,2013-01-10 11:33:00,
2013-01-10 06:43:00,49.0,49.0,-100.00,WNW,300,11.0,15.0,100,0.00,,,0.00,0.000000,,2013-01-10 11:43:00,
2013-01-10 06:53:00,49.0,49.0,-100.00,WNW,300,11.0,15.0,100,0.00,,,0.00,0.000000,,2013-01-10 11:53:00,
2013-01-10 09:03:00,49.0,46.0,-100.00,WSW,252,13.0,19.0,89,-99.99,,,0.00,34.000000,,2013-01-10 14:03:00,
2013-01-10 09:23:00,49.0,46.0,-100.00,WSW,252,13.0,19.0,89,-99.99,,,0.00,34.000000,,2013-01-10 14:23:00,
2013-01-10 09:33:00,49.0,46.0,-100.00,WSW,252,13.0,19.0,89,-99.99,,,0.00,34.000000,,2013-01-10 14:33:00,
2013-01-10 09:43:00,49.0,46.0,-100.00,WSW,252,13.0,19.0,89,-99.99,,,0.00,34.000000,,2013-01-10 14:43:00,
2013-01-10 09:53:00,49.0,46.0,-100.00,WSW,252,13.0,19.0,89,-99.99,,,0.00,34.000000,,2013-01-10 14:53:00,
2013-01-10 10:03:00,49.0,45.0,-100.00,SW,234,14.0,17.0,87,0.01,,,0.01,106.000000,,2013-01-10 15:03:00,
2013-01-10 10:33:00,49.0,45.0,-100.00,SW,234,14.0,17.0,87,0.01,,,0.01,106.000000,,2013-01-10 15:33:00,
2013-01-10 10:43:00,49.0,45.0,-100.00,SW,234,14.0,17.0,87,0.01,,,0.01,106.000000,,2013-01-10 15:43:00,
2013-01-10 10:53:00,49.0,45.0,-100.00,SW,234,14.0,17.0,87,0.01,,,0.01,106.000000,,2013-01-10 15:53:00,
2013-01-10 11:03:00,53.0,47.0,-100.00,WSW,237,15.0,21.0,80,0.00,,,0.01,402.000000,,2013-01-10 16:03:00,
2013-01-10 11:33:00,53.0,47.0,-100.00,WSW,237,15.0,21.0,80,0.00,,,0.01,402.000000,,2013-01-10 16:33:00,
2013-01-10 11:43:00,53.0,47.0,-100.00,WSW,237,15.0,21.0,80,0.00,,,0.01,402.000000,,2013-01-10 16:43:00,
2013-01-10 11:53:00,53.0,47.0,-100.00,WSW,237,15.0,21.0,80,0.00,,,0.01,402.000000,,2013-01-10 16:53:00,
2013-01-10 12:03:00,53.0,47.0,-100.00,WSW,243,13.0,19.0,81,0.00,,,0.01,365.000000,,2013-01-10 17:03:00,
2013-01-10 12:33:00,53.0,47.0,-100.00,WSW,243,13.0,19.0,81,0.00,,,0.01,365.000000,,2013-01-10 17:33:00,
2013-01-10 12:43:00,53.0,47.0,-100.00,WSW,243,13.0,19.0,81,0.00,,,0.01,365.000000,,2013-01-10 17:43:00,
2013-01-10 12:53:00,53.0,47.0,-100.00,WSW,243,13.0,19.0,81,0.00,,,0.01,365.000000,,2013-01-10 17:53:00,
2013-01-10 13:03:00,54.0,47.0,-100.00,WSW,250,12.0,18.0,76,0.00,,,0.01,421.000000,,2013-01-10 18:03:00,
2013-01-10 13:23:00,54.0,47.0,-100.00,WSW,250,12.0,18.0,76,0.00,,,0.01,421.000000,,2013-01-10 18:23:00,
2013-01-10 13:33:00,54.0,47.0,-100.00,WSW,250,12.0,18.0,76,0.00,,,0.01,421.000000,,2013-01-10 18:33:00,
2013-01-10 13:43:00,54.0,47.0,-100.00,WSW,250,12.0,18.0,76,0.00,,,0.01,421.000000,,2013-01-10 18:43:00,
2013-01-10 13:53:00,54.0,47.0,-100.00,WSW,250,12.0,18.0,76,0.00,,,0.01,421.000000,,2013-01-10 18:53:00,
2013-01-10 14:03:00,52.0,46.0,-100.00,WSW,239,12.0,18.0,81,0.00,,,-99.99,317.000000,,2013-01-10 19:03:00,
2013-01-10 14:33:00,52.0,46.0,-100.00,WSW,239,12.0,18.0,81,0.00,,,-99.99,317.000000,,2013-01-10 19:33:00,
2013-01-10 14:43:00,52.0,46.0,-100.00,WSW,239,12.0,18.0,81,0.00,,,-99.99,317.000000,,2013-01-10 19:43:00,
2013-01-10 14:53:00,52.0,46.0,-100.00,WSW,239,12.0,18.0,81,0.00,,,-99.99,317.000000,,2013-01-10 19:53:00,
2013-01-10 15:03:00,54.0,46.0,-100.00,WSW,237,11.0,17.0,74,0.00,,,0.01,357.000000,,2013-01-10 20:03:00,
2013-01-10 15:24:00,54.0,46.0,-100.00,WSW,237,11.0,17.0,74,0.00,,,0.01,357.000000,,2013-01-10 20:24:00,
2013-01-10 15:33:00,54.0,46.0,-100.00,WSW,237,11.0,17.0,74,0.00,,,0.01,357.000000,,2013-01-10 20:33:00,
2013-01-10 15:43:00,54.0,46.0,-100.00,WSW,237,11.0,17.0,74,0.00,,,0.01,357.000000,,2013-01-10 20:43:00,
2013-01-10 15:53:00,54.0,46.0,-100.00,WSW,237,11.0,17.0,74,0.00,,,0.01,357.000000,,2013-01-10 20:53:00,
2013-01-10 16:03:00,53.0,44.0,-100.00,WSW,239,13.0,20.0,71,0.00,,,0.01,297.000000,,2013-01-10 21:03:00,
2013-01-10 16:33:00,53.0,44.0,-100.00,WSW,239,13.0,20.0,71,0.00,,,0.01,297.000000,,2013-01-10 21:33:00,
2013-01-10 16:43:00,53.0,44.0,-100.00,WSW,239,13.0,20.0,71,0.00,,,0.01,297.000000,,2013-01-10 21:43:00,
2013-01-10 16:53:00,53.0,44.0,-100.00,WSW,239,13.0,20.0,71,0.00,,,0.01,297.000000,,2013-01-10 21:53:00,
2013-01-10 17:03:00,49.0,43.0,-100.00,WSW,245,16.0,22.0,80,0.00,,,0.01,113.000000,,2013-01-10 22:03:00,
2013-01-10 17:27:00,49.0,43.0,-100.00,WSW,245,16.0,22.0,80,0.00,,,0.01,113.000000,,2013-01-10 22:27:00,
2013-01-10 17:34:00,49.0,43.0,-100.00,WSW,245,16.0,22.0,80,0.00,,,0.01,113.000000,,2013-01-10 22:34:00,
2013-01-10 17:44:00,49.0,43.0,-100.00,WSW,245,16.0,22.0,80,0.00,,,0.01,113.000000,,2013-01-10 22:44:00,
2013-01-10 18:03:00,47.0,45.0,-100.00,WSW,244,22.0,32.0,91,0.00,,,0.01,8.000000,,2013-01-10 23:03:00,
2013-01-10 18:33:00,47.0,45.0,-100.00,WSW,244,22.0,32.0,91,0.00,,,0.01,8.000000,,2013-01-10 23:33:00,
2013-01-10 18:43:00,47.0,45.0,-100.00,WSW,244,22.0,32.0,91,0.00,,,0.01,8.000000,,2013-01-10 23:43:00,
2013-01-10 18:53:00,47.0,45.0,-100.00,WSW,244,22.0,32.0,91,0.00,,,0.01,8.000000,,2013-01-10 23:53:00,
2013-01-10 19:03:00,45.0,44.0,-100.00,WSW,241,25.0,34.0,96,0.00,,,0.01,0.000000,,2013-01-11 00:03:00,
2013-01-10 19:33:00,45.0,44.0,-100.00,WSW,241,25.0,34.0,96,0.00,,,0.01,0.000000,,2013-01-11 00:33:00,
2013-01-10 19:43:00,45.0,44.0,-100.00,WSW,241,25.0,34.0,96,0.00,,,0.01,0.000000,,2013-01-11 00:43:00,
2013-01-10 19:53:00,45.0,44.0,-100.00,WSW,241,25.0,34.0,96,0.00,,,0.01,0.000000,,2013-01-11 00:53:00,
2013-01-10 20:03:00,44.0,43.0,-100.00,WSW,242,24.0,40.0,98,0.00,,,0.01,0.000000,,2013-01-11 01:03:00,
2013-01-10 20:34:00,44.0,43.0,-100.00,WSW,242,24.0,40.0,98,0.00,,,0.01,0.000000,,2013-01-11 01:34:00,
2013-01-10 20:43:00,44.0,43.0,-100.00,WSW,242,24.0,40.0,98,0.00,,,0.01,0.000000,,2013-01-11 01:43:00,
2013-01-10 20:53:00,44.0,43.0,-100.00,WSW,242,24.0,40.0,98,0.00,,,0.01,0.000000,,2013-01-11 01:53:00,
2013-01-10 21:03:00,44.0,44.0,-100.00,WSW,240,26.0,36.0,100,0.00,,,0.01,0.000000,,2013-01-11 02:03:00,
2013-01-10 21:24:00,44.0,44.0,-100.00,WSW,240,26.0,36.0,100,0.00,,,0.01,0.000000,,2013-01-11 02:24:00,
2013-01-10 21:33:00,44.0,44.0,-100.00,WSW,240,26.0,36.0,100,0.00,,,0.01,0.000000,,2013-01-11 02:33:00,
2013-01-10 21:44:00,44.0,44.0,-100.00,WSW,240,26.0,36.0,100,0.00,,,0.01,0.000000,,2013-01-11 02:44:00,
2013-01-10 21:54:00,44.0,44.0,-100.00,WSW,240,26.0,36.0,100,0.00,,,0.01,0.000000,,2013-01-11 02:54:00,
2013-01-10 22:33:00,43.0,43.0,-100.00,WSW,241,22.0,36.0,100,0.00,,,0.01,0.000000,,2013-01-11 03:33:00,
2013-01-10 22:43:00,43.0,43.0,-100.00,WSW,241,22.0,36.0,100,0.00,,,0.01,0.000000,,2013-01-11 03:43:00,
2013-01-10 22:53:00,43.0,43.0,-100.00,WSW,241,22.0,36.0,100,0.00,,,0.01,0.000000,,2013-01-11 03:53:00,
2013-01-10 23:02:00,43.0,43.0,-100.00,WSW,241,22.0,36.0,100,0.00,,,0.01,0.000000,,2013-01-11 04:02:00,
2013-01-10 23:03:00,43.0,43.0,-100.00,WSW,240,30.0,44.0,100,0.00,,,0.01,0.000000,,2013-01-11 04:03:00,
2013-01-10 23:33:00,43.0,43.0,-100.00,WSW,240,30.0,44.0,100,0.00,,,0.01,0.000000,,2013-01-11 04:33:00,
2013-01-10 23:43:00,43.0,43.0,-100.00,WSW,240,30.0,44.0,100,0.00,,,0.01,0.000000,,2013-01-11 04:43:00,
2013-01-10 23:53:00,43.0,43.0,-100.00,WSW,240,30.0,44.0,100,0.00,,,0.01,0.000000,,2013-01-11 04:53:00,